Time;durP1;ratioP1;P1;durP2;ratioP2;P2;SDS_P1;SDS_P2;PMS_P1;PMS_P2;Temp;Humidity;BMP_temperature;BMP_pressure;BME280_temperature;BME280_humidity;BME280_pressure;Samples;Min_cycle;Max_cycle;Signal;HPM_P1;HPM_P2
2021/12/21 00:00:00;;;;;;;2.97;2.77;;;0.30;99.90;;;;;;4964822;28;20283;-91
2021/12/21 00:02:25;;;;;;;0.93;0.93;;;0.30;99.90;;;;;;4978064;28;20274;-92
2021/12/21 00:04:54;;;;;;;1.50;1.40;;;0.20;99.90;;;;;;4963165;28;20263;-91
2021/12/21 00:07:20;;;;;;;0.93;0.80;;;0.20;99.90;;;;;;4962652;28;20251;-91
2021/12/21 00:09:46;;;;;;;1.97;1.67;;;0.20;99.90;;;;;;4979804;28;20216;-91
2021/12/21 00:12:15;;;;;;;0.90;0.90;;;0.30;99.90;;;;;;4947178;28;20307;-91
2021/12/21 00:15:00;;;;;;;1.00;1.00;;;0.50;99.90;;;;;;4947861;28;20212;-91
2021/12/21 00:20:25;;;;;;;0.87;0.87;;;0.70;99.90;;;;;;4979712;28;20721;-91
2021/12/21 00:25:21;;;;;;;1.37;1.37;;;0.80;99.90;;;;;;4988953;28;20211;-91
2021/12/21 00:27:51;;;;;;;1.80;1.70;;;0.80;99.90;;;;;;4972938;28;20300;-91
2021/12/21 00:30:17;;;;;;;1.63;1.53;;;0.90;99.90;;;;;;4973294;28;20234;-91
2021/12/21 00:32:43;;;;;;;2.77;2.57;;;0.90;99.90;;;;;;4989438;28;20222;-91
2021/12/21 00:35:10;;;;;;;1.10;1.00;;;0.80;99.90;;;;;;4989214;28;20792;-91
2021/12/21 00:37:40;;;;;;;1.87;1.77;;;0.80;99.90;;;;;;4956883;28;20198;-91
2021/12/21 00:40:08;;;;;;;0.93;0.90;;;0.80;99.90;;;;;;4989145;28;20262;-91
2021/12/21 00:42:34;;;;;;;0.87;0.87;;;0.70;99.90;;;;;;4972710;28;20208;-91
2021/12/21 00:45:00;;;;;;;1.97;1.87;;;0.80;99.90;;;;;;4988673;28;20646;-91
2021/12/21 00:47:25;;;;;;;2.90;1.67;;;0.80;99.90;;;;;;4972589;28;20220;-91
2021/12/21 00:49:59;;;;;;;1.47;1.37;;;0.80;99.90;;;;;;4956536;28;20358;-91
2021/12/21 00:52:29;;;;;;;2.03;1.37;;;0.80;99.90;;;;;;4958332;28;20192;-91
2021/12/21 00:54:56;;;;;;;1.20;1.20;;;0.80;99.90;;;;;;4973418;28;20262;-91
2021/12/21 00:57:22;;;;;;;14.93;1.40;;;0.70;99.90;;;;;;5004978;28;20216;-91
2021/12/21 00:59:47;;;;;;;6.23;1.10;;;0.70;99.90;;;;;;4988507;28;20204;-92
2021/12/21 01:02:14;;;;;;;0.67;0.67;;;0.70;99.90;;;;;;4956079;28;20246;-91
2021/12/21 01:04:45;;;;;;;1.73;1.63;;;0.70;99.90;;;;;;4956323;28;20227;-91
2021/12/21 01:12:41;;;;;;;1.03;1.03;;;0.70;99.90;;;;;;4988482;28;20557;-91
2021/12/21 01:17:47;;;;;;;4.87;2.13;;;0.80;99.90;;;;;;4988131;28;20220;-91
2021/12/21 01:20:28;;;;;;;1.67;1.17;;;0.80;99.90;;;;;;4959957;28;20702;-91
2021/12/21 01:25:41;;;;;;;2.23;2.10;;;0.80;99.90;;;;;;4972445;28;20243;-91
2021/12/21 01:28:18;;;;;;;0.73;0.70;;;0.80;99.90;;;;;;4960011;28;20339;-91
2021/12/21 01:31:02;;;;;;;2.07;1.97;;;0.70;99.90;;;;;;4975636;28;20212;-91
2021/12/21 01:36:23;;;;;;;0.60;0.60;;;0.70;99.90;;;;;;4988398;28;20585;-91
2021/12/21 01:38:58;;;;;;;0.77;0.77;;;0.70;99.90;;;;;;4971806;28;20223;-91
2021/12/21 01:44:14;;;;;;;1.93;1.27;;;0.70;99.90;;;;;;4976966;28;20233;-91
2021/12/21 01:49:43;;;;;;;1.30;1.30;;;0.70;99.90;;;;;;4964378;28;20192;-91
2021/12/21 01:52:13;;;;;;;0.90;0.90;;;0.70;99.90;;;;;;4952000;28;20658;-91
2021/12/21 01:54:40;;;;;;;0.93;0.93;;;0.70;99.90;;;;;;4994717;28;20311;-92
2021/12/21 01:57:07;;;;;;;1.93;1.57;;;0.60;99.90;;;;;;4977311;28;20215;-91
2021/12/21 01:59:38;;;;;;;1.40;1.30;;;0.50;99.90;;;;;;4959740;28;21245;-91
2021/12/21 02:02:05;;;;;;;2.47;2.27;;;0.40;99.90;;;;;;4992941;28;20251;-91
2021/12/21 02:04:31;;;;;;;1.77;1.67;;;0.20;99.90;;;;;;4993715;28;20267;-91
2021/12/21 02:06:57;;;;;;;0.87;0.87;;;0.10;99.90;;;;;;4961372;28;20689;-91
2021/12/21 02:09:29;;;;;;;0.50;0.40;;;0.00;99.90;;;;;;4961168;28;20582;-91
2021/12/21 02:11:55;;;;;;;1.30;1.30;;;0.10;99.90;;;;;;4962439;28;20292;-90
2021/12/21 02:14:21;;;;;;;1.87;1.77;;;0.10;99.90;;;;;;4977997;28;20812;-91
2021/12/21 02:17:11;;;;;;;0.60;0.60;;;0.10;99.90;;;;;;4945187;28;20219;-92
2021/12/21 02:19:41;;;;;;;3.47;1.80;;;0.20;99.90;;;;;;4963541;28;20196;-92
2021/12/21 02:22:19;;;;;;;1.50;1.47;;;0.20;99.90;;;;;;4962473;28;20194;-91
2021/12/21 02:25:04;;;;;;;9.03;2.23;;;0.10;99.90;;;;;;4963243;28;20223;-91
2021/12/21 02:27:40;;;;;;;1.03;1.03;;;0.00;99.90;;;;;;4949143;28;20212;-91
2021/12/21 02:30:08;;;;;;;2.47;2.23;;;-0.10;99.90;;;;;;4947708;28;20220;-91
2021/12/21 02:32:34;;;;;;;2.43;2.17;;;-0.10;99.90;;;;;;4984987;28;20300;-92
2021/12/21 02:34:59;;;;;;;4.27;1.77;;;-0.10;99.90;;;;;;4962617;28;20322;-92
2021/12/21 02:37:25;;;;;;;0.93;0.93;;;-0.10;99.90;;;;;;4944788;28;20200;-91
2021/12/21 02:39:51;;;;;;;1.63;1.53;;;-0.10;99.90;;;;;;4944878;28;20294;-92
2021/12/21 02:42:16;;;;;;;3.90;1.33;;;-0.20;99.90;;;;;;4960581;28;20278;-91
2021/12/21 02:44:49;;;;;;;1.13;1.13;;;-0.10;99.90;;;;;;4959882;28;20258;-92
2021/12/21 02:47:15;;;;;;;1.40;1.30;;;-0.10;99.90;;;;;;4961208;28;20232;-91
2021/12/21 02:49:41;;;;;;;2.50;1.77;;;-0.10;99.90;;;;;;4960823;28;20263;-92
2021/12/21 02:52:07;;;;;;;1.07;1.07;;;0.00;99.90;;;;;;4947121;28;20196;-92
2021/12/21 02:54:33;;;;;;;1.17;1.17;;;0.00;99.90;;;;;;4944635;28;20604;-92
2021/12/21 02:56:58;;;;;;;1.17;1.17;;;0.10;99.90;;;;;;4961247;28;20208;-92
2021/12/21 02:59:24;;;;;;;1.40;1.30;;;0.10;99.90;;;;;;4959573;28;20212;-91
2021/12/21 03:01:50;;;;;;;1.67;1.57;;;0.00;99.90;;;;;;4961048;28;20307;-91
2021/12/21 03:04:16;;;;;;;2.60;1.23;;;0.00;99.90;;;;;;4964359;28;20243;-92
2021/12/21 03:09:41;;;;;;;0.80;0.80;;;-0.10;99.90;;;;;;4981362;28;20215;-92
2021/12/21 03:14:38;;;;;;;0.60;0.60;;;0.10;99.90;;;;;;4980860;28;20228;-91
2021/12/21 03:17:05;;;;;;;0.63;0.63;;;0.10;99.90;;;;;;4979559;28;20212;-91
2021/12/21 03:19:31;;;;;;;8.60;1.37;;;0.20;99.90;;;;;;4962839;28;20565;-92
2021/12/21 03:21:57;;;;;;;4.00;1.40;;;0.20;99.90;;;;;;4949092;28;20197;-92
2021/12/21 03:24:23;;;;;;;2.03;1.10;;;0.20;99.90;;;;;;4964484;28;20215;-92
2021/12/21 03:26:50;;;;;;;0.97;0.60;;;0.30;99.90;;;;;;4964962;28;20212;-92
2021/12/21 03:29:16;;;;;;;3.23;2.23;;;0.30;99.90;;;;;;4963444;28;20701;-91
2021/12/21 03:31:42;;;;;;;0.70;0.70;;;0.30;99.90;;;;;;4963632;28;20189;-92
2021/12/21 03:34:08;;;;;;;2.80;1.50;;;0.40;99.90;;;;;;4947952;28;20928;-92
2021/12/21 03:36:34;;;;;;;4.87;2.37;;;0.40;99.90;;;;;;4955893;28;20244;-92
2021/12/21 03:41:29;;;;;;;0.77;0.77;;;0.40;99.90;;;;;;4979632;28;20227;-92
2021/12/21 03:43:59;;;;;;;1.30;1.30;;;0.40;99.90;;;;;;4963995;28;20219;-92
2021/12/21 03:46:26;;;;;;;0.63;0.63;;;0.40;99.90;;;;;;4950093;28;20292;-92
2021/12/21 03:48:52;;;;;;;5.10;1.40;;;0.40;99.90;;;;;;4982071;28;20230;-92
2021/12/21 03:51:20;;;;;;;1.07;0.97;;;0.40;99.90;;;;;;4979422;28;20240;-92
2021/12/21 03:53:53;;;;;;;1.73;1.63;;;0.40;99.90;;;;;;4986613;28;20244;-92
2021/12/21 03:58:45;;;;;;;1.27;1.20;;;0.40;99.90;;;;;;4973710;28;20222;-92
2021/12/21 04:01:14;;;;;;;1.47;1.37;;;0.40;99.90;;;;;;4959344;28;20252;-90
2021/12/21 04:03:40;;;;;;;1.10;1.10;;;0.40;99.90;;;;;;4973085;28;20298;-92
2021/12/21 04:06:06;;;;;;;5.27;1.60;;;0.40;99.90;;;;;;4973090;28;20205;-93
2021/12/21 04:08:34;;;;;;;4.10;1.83;;;0.50;99.90;;;;;;4957593;28;20238;-92
2021/12/21 04:11:01;;;;;;;1.00;1.00;;;0.40;99.90;;;;;;4974157;28;20216;-91
2021/12/21 04:13:27;;;;;;;0.80;0.80;;;0.40;99.90;;;;;;4973483;28;20188;-91
2021/12/21 04:15:54;;;;;;;0.60;0.60;;;0.30;99.90;;;;;;4973983;28;20645;-92
2021/12/21 04:18:22;;;;;;;1.40;1.40;;;0.20;99.90;;;;;;4956818;28;20216;-91
2021/12/21 04:20:49;;;;;;;0.80;0.80;;;0.10;99.90;;;;;;4973850;28;20216;-91
2021/12/21 04:23:16;;;;;;;1.37;1.33;;;0.10;99.90;;;;;;5005406;28;20224;-91
2021/12/21 04:25:42;;;;;;;1.23;1.17;;;0.20;99.90;;;;;;4988604;28;20207;-92
2021/12/21 04:28:08;;;;;;;0.87;0.87;;;0.10;99.90;;;;;;4957805;28;20211;-91
2021/12/21 04:30:34;;;;;;;1.50;1.43;;;0.10;99.90;;;;;;4972935;28;20719;-91
2021/12/21 04:32:59;;;;;;;1.07;0.97;;;0.10;99.90;;;;;;4972854;28;20212;-92
2021/12/21 04:35:26;;;;;;;3.13;1.53;;;0.10;99.90;;;;;;4973445;28;20212;-91
2021/12/21 04:38:00;;;;;;;1.43;1.33;;;0.10;99.90;;;;;;4972884;28;20278;-92
2021/12/21 04:40:44;;;;;;;1.60;1.37;;;0.10;99.90;;;;;;4987178;28;20198;-94
2021/12/21 04:43:10;;;;;;;0.90;0.87;;;0.10;99.90;;;;;;4958829;28;20177;-93
2021/12/21 04:45:36;;;;;;;1.10;1.10;;;0.10;99.90;;;;;;4973324;28;20231;-92
2021/12/21 04:48:01;;;;;;;1.03;1.03;;;0.10;99.90;;;;;;4972002;28;20212;-92
2021/12/21 04:50:28;;;;;;;1.47;1.37;;;0.10;99.90;;;;;;4946460;28;20224;-93
2021/12/21 04:52:53;;;;;;;1.87;1.77;;;0.00;99.90;;;;;;4979042;28;20268;-92
2021/12/21 04:55:19;;;;;;;1.43;1.33;;;0.10;99.90;;;;;;4963559;28;20283;-93
2021/12/21 04:57:45;;;;;;;1.60;1.30;;;0.10;99.90;;;;;;4962545;28;21379;-92
2021/12/21 05:00:13;;;;;;;0.77;0.67;;;0.10;99.90;;;;;;4963507;28;20336;-92
2021/12/21 05:02:39;;;;;;;1.37;1.37;;;0.10;99.90;;;;;;4962830;28;20582;-92
2021/12/21 05:05:06;;;;;;;1.57;1.20;;;0.00;99.90;;;;;;4946320;28;20255;-92
2021/12/21 05:07:35;;;;;;;1.50;1.43;;;-0.10;99.90;;;;;;4945367;28;20255;-92
2021/12/21 05:10:09;;;;;;;0.80;0.80;;;-0.30;99.90;;;;;;4995157;28;20267;-93
2021/12/21 05:12:39;;;;;;;1.33;1.10;;;-0.30;99.90;;;;;;4962247;28;20613;-92
2021/12/21 05:15:06;;;;;;;2.53;2.33;;;-0.30;99.90;;;;;;4946244;28;20219;-92
2021/12/21 05:17:32;;;;;;;0.63;0.63;;;-0.30;99.90;;;;;;4970460;28;20217;-92
2021/12/21 05:19:58;;;;;;;0.87;0.87;;;-0.20;99.90;;;;;;4946780;28;20212;-92
2021/12/21 05:22:24;;;;;;;3.00;1.00;;;-0.20;99.90;;;;;;4961730;28;21275;-92
2021/12/21 05:24:51;;;;;;;1.07;0.97;;;-0.20;99.90;;;;;;4947980;28;20612;-91
2021/12/21 05:27:17;;;;;;;1.30;1.20;;;-0.30;99.90;;;;;;4979822;28;20350;-91
2021/12/21 05:29:43;;;;;;;1.50;1.43;;;-0.20;99.90;;;;;;4978027;28;20236;-93
2021/12/21 05:32:08;;;;;;;2.90;1.27;;;-0.20;99.90;;;;;;4963458;28;20269;-88
2021/12/21 05:34:35;;;;;;;1.03;1.03;;;-0.20;99.90;;;;;;4945537;28;20192;-92
2021/12/21 05:37:05;;;;;;;1.20;1.20;;;-0.20;99.90;;;;;;4994456;28;20303;-90
2021/12/21 05:39:40;;;;;;;1.33;1.23;;;-0.30;99.90;;;;;;4948747;28;20208;-91
2021/12/21 05:42:07;;;;;;;1.83;1.73;;;-0.20;99.90;;;;;;4948563;28;20219;-90
2021/12/21 05:44:32;;;;;;;3.63;2.40;;;-0.20;99.90;;;;;;4954417;28;20712;-90
2021/12/21 05:46:58;;;;;;;0.97;0.97;;;-0.30;99.90;;;;;;4945157;28;20214;-89
2021/12/21 05:49:24;;;;;;;1.70;1.00;;;-0.30;99.90;;;;;;4961264;28;20189;-90
2021/12/21 05:51:50;;;;;;;1.07;1.03;;;-0.30;99.90;;;;;;4961921;28;20864;-90
2021/12/21 05:54:21;;;;;;;2.40;2.20;;;-0.20;99.90;;;;;;4963680;28;20235;-89
2021/12/21 05:56:47;;;;;;;1.23;1.23;;;-0.20;99.90;;;;;;4987208;28;20224;-89
2021/12/21 05:59:13;;;;;;;1.40;1.30;;;-0.20;99.90;;;;;;4959471;28;20277;-89
2021/12/21 06:01:39;;;;;;;2.13;2.03;;;-0.30;99.90;;;;;;4961918;28;20193;-90
2021/12/21 06:04:05;;;;;;;1.33;1.23;;;-0.30;99.90;;;;;;4945644;28;20222;-90
2021/12/21 06:06:32;;;;;;;1.37;1.17;;;-0.30;99.90;;;;;;4944963;28;20561;-91
2021/12/21 06:09:04;;;;;;;1.13;1.13;;;-0.40;99.90;;;;;;4975507;28;20230;-90
2021/12/21 06:11:33;;;;;;;1.47;1.37;;;-0.40;99.90;;;;;;4962371;28;20212;-90
2021/12/21 06:27:14;;;;;;;2.57;2.37;;;-0.40;99.90;;;;;;4982071;28;20303;-89
2021/12/21 06:29:41;;;;;;;0.73;0.73;;;-0.30;99.90;;;;;;4967430;28;20296;-90
2021/12/21 06:32:08;;;;;;;2.80;2.57;;;-0.20;99.90;;;;;;4967650;28;20270;-90
2021/12/21 06:34:34;;;;;;;0.93;0.93;;;-0.30;99.90;;;;;;4967318;28;20702;-90
2021/12/21 06:37:00;;;;;;;1.50;1.43;;;-0.30;99.90;;;;;;4984063;28;20220;-89
2021/12/21 06:39:28;;;;;;;1.97;1.83;;;-0.10;99.90;;;;;;4966615;28;20751;-90
2021/12/21 06:41:54;;;;;;;5.10;1.93;;;-0.10;99.90;;;;;;4983602;28;20621;-90
2021/12/21 06:44:20;;;;;;;0.80;0.80;;;0.10;99.90;;;;;;4966837;28;20224;-89
2021/12/21 06:52:13;;;;;;;1.63;1.43;;;0.30;99.90;;;;;;4968201;28;20232;-89
2021/12/21 06:54:39;;;;;;;2.67;2.33;;;0.40;99.90;;;;;;4974437;28;20577;-90
2021/12/21 06:57:05;;;;;;;1.83;1.73;;;0.40;99.90;;;;;;4967265;28;20227;-90
2021/12/21 06:59:31;;;;;;;1.57;1.47;;;0.40;99.90;;;;;;4967585;28;20974;-90
2021/12/21 07:01:57;;;;;;;2.30;2.20;;;0.20;99.90;;;;;;4966968;28;20227;-91
2021/12/21 07:04:26;;;;;;;1.57;1.47;;;0.00;99.90;;;;;;4982893;28;20228;-90
2021/12/21 07:06:54;;;;;;;2.30;2.10;;;0.10;99.90;;;;;;4983512;28;20217;-90
2021/12/21 07:11:55;;;;;;;2.20;1.93;;;-0.10;99.90;;;;;;4983090;28;20212;-90
2021/12/21 07:19:51;;;;;;;3.23;2.93;;;0.30;99.90;;;;;;4980588;28;20263;-89
2021/12/21 07:22:17;;;;;;;3.87;1.87;;;0.30;99.90;;;;;;4975653;28;20200;-89
2021/12/21 07:24:44;;;;;;;2.70;2.37;;;0.30;99.90;;;;;;4967186;28;20224;-88
2021/12/21 07:27:10;;;;;;;3.20;2.90;;;0.20;99.90;;;;;;4967481;28;20213;-91
2021/12/21 07:29:38;;;;;;;5.43;4.30;;;0.20;99.90;;;;;;4967545;28;20224;-92
2021/12/21 07:32:05;;;;;;;10.30;8.57;;;0.20;99.90;;;;;;4984269;28;20231;-94
2021/12/21 07:34:32;;;;;;;12.40;10.10;;;0.20;99.90;;;;;;4968574;28;20205;-93
2021/12/21 07:36:58;;;;;;;4.10;3.77;;;0.00;99.90;;;;;;4968746;28;20212;-93
2021/12/21 07:39:24;;;;;;;3.30;3.00;;;-0.10;99.90;;;;;;4968789;28;20220;-92
2021/12/21 07:41:50;;;;;;;11.77;8.73;;;-0.10;99.90;;;;;;4968693;28;20213;-92
2021/12/21 07:44:18;;;;;;;5.03;4.63;;;-0.20;99.90;;;;;;4968824;28;20267;-93
2021/12/21 07:46:44;;;;;;;2.50;2.40;;;-0.20;99.90;;;;;;4969445;28;20212;-93
2021/12/21 07:49:10;;;;;;;1.90;1.80;;;-0.20;99.90;;;;;;4969724;28;20204;-91
2021/12/21 07:51:38;;;;;;;2.97;2.77;;;-0.10;99.90;;;;;;4972195;28;20216;-93
2021/12/21 07:54:03;;;;;;;8.13;3.83;;;-0.20;99.90;;;;;;4998330;28;20467;-91
2021/12/21 07:56:32;;;;;;;5.83;5.13;;;-0.20;99.90;;;;;;4956853;28;20647;-90
2021/12/21 07:58:58;;;;;;;4.67;4.23;;;-0.10;99.90;;;;;;4989300;28;20275;-91
2021/12/21 08:01:30;;;;;;;2.17;2.07;;;-0.10;99.90;;;;;;4989773;28;20196;-91
2021/12/21 08:03:57;;;;;;;4.23;3.83;;;0.00;99.90;;;;;;4973110;28;20228;-93
2021/12/21 08:06:29;;;;;;;1.50;1.43;;;0.00;99.90;;;;;;4973540;28;20227;-92
2021/12/21 08:09:03;;;;;;;3.00;2.80;;;-0.10;99.90;;;;;;4987466;28;20227;-92
2021/12/21 08:14:12;;;;;;;2.60;2.40;;;0.00;99.90;;;;;;4990442;28;20765;-91
2021/12/21 08:16:38;;;;;;;2.17;2.07;;;0.10;99.90;;;;;;4981295;28;20180;-91
2021/12/21 08:19:04;;;;;;;1.97;1.87;;;0.10;99.90;;;;;;4989693;28;20206;-91
2021/12/21 08:21:30;;;;;;;1.77;1.67;;;0.10;99.90;;;;;;4973070;28;20211;-91
2021/12/21 08:24:02;;;;;;;3.30;3.00;;;0.10;99.90;;;;;;4975353;28;20224;-92
2021/12/21 08:26:38;;;;;;;3.03;2.67;;;0.10;99.90;;;;;;4979183;28;20230;-91
2021/12/21 08:29:04;;;;;;;1.90;1.80;;;0.20;99.90;;;;;;4977123;28;20239;-90
2021/12/21 08:31:35;;;;;;;4.77;3.27;;;0.20;99.90;;;;;;4947239;28;20223;-91
2021/12/21 08:34:06;;;;;;;3.70;3.40;;;0.20;99.90;;;;;;4967633;28;20184;-92
2021/12/21 08:36:32;;;;;;;4.50;2.77;;;0.20;99.90;;;;;;4988910;28;20215;-92
2021/12/21 08:39:01;;;;;;;4.23;2.27;;;0.30;99.90;;;;;;4968748;28;20723;-92
2021/12/21 08:41:29;;;;;;;5.63;3.23;;;0.40;99.90;;;;;;4988738;28;20581;-90
2021/12/21 08:43:55;;;;;;;1.83;1.73;;;0.40;99.90;;;;;;4988076;28;20236;-91
2021/12/21 08:46:22;;;;;;;2.20;2.10;;;0.40;99.90;;;;;;4973219;28;20223;-91
2021/12/21 08:48:47;;;;;;;4.30;3.77;;;0.50;99.90;;;;;;4988703;28;20635;-91
2021/12/21 08:51:13;;;;;;;6.70;6.07;;;0.50;99.90;;;;;;4971913;28;20215;-91
2021/12/21 08:53:42;;;;;;;7.40;6.80;;;0.50;99.90;;;;;;4956179;28;20204;-91
2021/12/21 08:56:09;;;;;;;9.33;8.40;;;0.70;99.90;;;;;;4956346;28;20219;-92
2021/12/21 08:58:35;;;;;;;3.07;2.80;;;0.70;99.90;;;;;;4988177;28;20283;-92
2021/12/21 09:01:09;;;;;;;4.17;2.23;;;0.80;99.90;;;;;;4971241;28;20772;-92
2021/12/21 09:03:35;;;;;;;1.67;1.57;;;1.00;99.90;;;;;;4988418;28;20212;-92
2021/12/21 09:06:01;;;;;;;3.20;2.80;;;0.90;99.90;;;;;;4955640;28;20603;-92
2021/12/21 09:08:30;;;;;;;3.90;3.37;;;1.00;99.90;;;;;;4988384;28;20290;-91
2021/12/21 09:11:05;;;;;;;3.70;3.50;;;1.20;99.90;;;;;;4956012;28;20219;-92
2021/12/21 09:13:34;;;;;;;5.60;3.20;;;1.20;99.90;;;;;;4958060;28;20188;-91
2021/12/21 09:16:22;;;;;;;9.47;5.90;;;1.30;99.90;;;;;;4972580;28;20199;-91
2021/12/21 09:18:47;;;;;;;5.80;5.23;;;1.40;99.90;;;;;;4987879;28;20215;-93
2021/12/21 09:21:18;;;;;;;4.67;4.13;;;1.50;99.90;;;;;;4947238;28;20226;-92
2021/12/21 09:24:02;;;;;;;2.93;2.73;;;1.50;99.90;;;;;;4987721;28;20224;-93
2021/12/21 09:26:30;;;;;;;7.27;4.60;;;1.60;99.90;;;;;;4956105;28;20223;-94
2021/12/21 09:28:59;;;;;;;6.23;3.80;;;1.60;99.90;;;;;;4963756;28;20231;-93
2021/12/21 09:31:28;;;;;;;9.03;5.13;;;1.70;99.90;;;;;;4955384;28;20195;-94
2021/12/21 09:33:54;;;;;;;7.47;4.40;;;1.80;99.90;;;;;;4973078;28;20206;-92
2021/12/21 09:36:25;;;;;;;5.77;3.53;;;1.90;99.90;;;;;;4955461;28;20214;-91
2021/12/21 09:38:51;;;;;;;4.13;3.93;;;2.00;99.90;;;;;;4987347;28;20295;-91
2021/12/21 09:41:18;;;;;;;24.67;2.33;;;2.00;99.90;;;;;;4946750;28;20298;-92
2021/12/21 09:43:47;;;;;;;2.03;1.77;;;2.00;99.90;;;;;;5003205;28;21048;-91
2021/12/21 09:46:16;;;;;;;6.47;4.80;;;2.10;99.90;;;;;;5003903;28;20188;-91
2021/12/21 09:48:42;;;;;;;4.27;3.10;;;2.20;99.90;;;;;;5003639;28;20217;-91
2021/12/21 09:51:08;;;;;;;6.93;6.00;;;2.20;99.90;;;;;;4987150;28;20208;-91
2021/12/21 09:53:37;;;;;;;3.87;3.63;;;2.40;99.90;;;;;;4971139;28;20207;-91
2021/12/21 09:56:05;;;;;;;4.13;3.73;;;2.50;99.90;;;;;;4970398;28;20226;-91
2021/12/21 09:58:31;;;;;;;3.13;2.90;;;2.50;99.90;;;;;;4987029;28;20184;-91
2021/12/21 10:01:00;;;;;;;3.47;3.20;;;2.60;99.90;;;;;;4989009;28;20188;-91
2021/12/21 10:03:26;;;;;;;3.07;2.53;;;2.60;99.90;;;;;;4970854;28;20223;-90
2021/12/21 10:06:07;;;;;;;5.13;4.60;;;2.70;99.90;;;;;;4969250;28;20239;-90
2021/12/21 10:08:34;;;;;;;8.67;3.87;;;2.70;99.90;;;;;;4986513;28;20243;-88
2021/12/21 10:11:09;;;;;;;3.27;3.03;;;2.80;99.90;;;;;;4969628;28;20258;-89
2021/12/21 10:13:36;;;;;;;4.50;3.83;;;2.90;99.90;;;;;;4986547;28;20238;-91
2021/12/21 10:16:07;;;;;;;5.80;2.87;;;3.00;99.90;;;;;;4987269;28;20708;-91
2021/12/21 10:18:41;;;;;;;2.50;2.30;;;3.10;99.90;;;;;;4992916;28;20672;-89
2021/12/21 10:21:13;;;;;;;5.97;5.57;;;3.10;99.90;;;;;;4986721;28;20218;-90
2021/12/21 10:23:42;;;;;;;4.87;4.57;;;3.20;99.90;;;;;;4987771;28;20212;-91
2021/12/21 10:26:20;;;;;;;3.37;2.77;;;3.20;99.90;;;;;;5002488;28;21236;-90
2021/12/21 10:28:52;;;;;;;6.37;3.73;;;3.20;99.90;;;;;;5002810;28;20215;-88
2021/12/21 10:31:50;;;;;;;2.47;2.27;;;3.30;99.90;;;;;;4987152;28;20215;-91
2021/12/21 10:34:18;;;;;;;2.90;2.70;;;3.30;99.90;;;;;;4953080;28;20235;-89
2021/12/21 10:36:50;;;;;;;2.23;2.13;;;3.30;99.90;;;;;;4970529;28;20208;-89
2021/12/21 10:39:26;;;;;;;2.87;2.67;;;3.40;99.90;;;;;;4986465;28;20962;-89
2021/12/21 10:41:56;;;;;;;4.97;3.50;;;3.50;99.90;;;;;;4986115;28;20239;-90
2021/12/21 10:44:22;;;;;;;9.03;3.73;;;3.50;99.90;;;;;;4986233;28;20306;-89
2021/12/21 10:46:53;;;;;;;10.20;2.87;;;3.60;99.90;;;;;;4953346;28;20299;-89
2021/12/21 10:49:22;;;;;;;3.23;2.57;;;3.70;99.90;;;;;;5003139;28;20271;-89
2021/12/21 10:52:00;;;;;;;2.03;1.93;;;3.70;99.90;;;;;;4986153;28;20238;-90
2021/12/21 10:54:35;;;;;;;3.93;2.50;;;3.80;99.90;;;;;;5002674;28;20251;-89
2021/12/21 10:57:05;;;;;;;1.50;1.40;;;3.70;99.90;;;;;;5003023;28;20234;-88
2021/12/21 10:59:32;;;;;;;9.10;2.03;;;3.70;99.90;;;;;;4988258;28;20754;-89
2021/12/21 11:02:21;;;;;;;1.77;1.67;;;3.80;99.90;;;;;;4969988;28;20672;-89
2021/12/21 11:04:53;;;;;;;2.77;2.57;;;3.80;99.90;;;;;;4986352;28;20220;-89
2021/12/21 11:07:34;;;;;;;11.00;3.10;;;3.80;99.90;;;;;;4986403;28;20722;-90
2021/12/21 11:10:27;;;;;;;3.93;2.63;;;3.90;99.90;;;;;;4986587;28;20242;-90
2021/12/21 11:12:54;;;;;;;1.60;1.40;;;3.90;99.90;;;;;;5002647;28;20208;-89
2021/12/21 11:15:29;;;;;;;3.13;2.47;;;3.90;99.90;;;;;;4985896;28;20220;-90
2021/12/21 11:18:01;;;;;;;3.90;3.03;;;4.00;99.90;;;;;;5002612;28;20207;-89
2021/12/21 11:20:27;;;;;;;4.40;2.90;;;4.00;99.90;;;;;;4986333;28;20270;-91
2021/12/21 11:22:54;;;;;;;1.90;1.70;;;4.10;99.90;;;;;;4969429;28;20211;-88
2021/12/21 11:25:20;;;;;;;2.67;2.33;;;4.10;99.90;;;;;;4988513;28;20218;-90
2021/12/21 11:27:47;;;;;;;4.67;3.73;;;4.10;99.90;;;;;;4989384;28;20234;-90
2021/12/21 11:30:19;;;;;;;4.20;3.90;;;4.30;99.90;;;;;;4990029;28;20658;-89
2021/12/21 11:32:49;;;;;;;3.53;2.60;;;4.30;99.90;;;;;;4989900;28;20215;-88
2021/12/21 11:37:46;;;;;;;4.60;3.93;;;4.40;99.90;;;;;;4990660;28;20219;-89
2021/12/21 11:40:15;;;;;;;2.43;2.23;;;4.40;99.90;;;;;;4990425;28;20243;-89
2021/12/21 11:42:56;;;;;;;2.30;2.20;;;4.50;99.90;;;;;;5006082;28;20274;-88
2021/12/21 11:45:38;;;;;;;2.67;2.47;;;4.60;99.90;;;;;;4989437;28;20247;-89
2021/12/21 11:48:42;;;;;;;4.37;3.73;;;4.70;99.90;;;;;;4988959;28;21687;-89
2021/12/21 11:51:11;;;;;;;3.70;3.07;;;4.80;99.90;;;;;;5003520;28;20206;-89
2021/12/21 11:53:37;;;;;;;10.03;3.37;;;4.90;99.90;;;;;;4989972;28;20207;-88
2021/12/21 11:56:05;;;;;;;3.03;2.50;;;4.90;99.90;;;;;;5006151;28;20216;-91
2021/12/21 11:58:39;;;;;;;4.60;3.50;;;4.80;99.90;;;;;;4973356;28;20192;-90
2021/12/21 12:01:26;;;;;;;2.83;2.43;;;4.80;99.90;;;;;;4990539;28;20175;-89
2021/12/21 12:04:08;;;;;;;2.73;2.53;;;4.80;99.90;;;;;;5006204;28;20262;-90
2021/12/21 12:06:46;;;;;;;2.03;1.87;;;4.80;99.90;;;;;;4990747;28;20250;-89
2021/12/21 12:09:39;;;;;;;1.43;1.30;;;4.80;99.90;;;;;;4987989;28;20222;-89
2021/12/21 12:12:17;;;;;;;1.67;1.57;;;5.00;99.90;;;;;;4989545;28;20224;-89
2021/12/21 12:14:47;;;;;;;4.93;1.90;;;5.00;99.90;;;;;;4990844;28;20243;-90
2021/12/21 12:17:18;;;;;;;2.53;1.83;;;4.90;99.90;;;;;;4989808;28;20226;-89
2021/12/21 12:20:04;;;;;;;6.30;3.10;;;4.90;99.90;;;;;;4989267;28;20255;-90
2021/12/21 12:22:39;;;;;;;3.73;2.00;;;5.00;99.90;;;;;;4989611;28;21364;-90
2021/12/21 12:25:08;;;;;;;2.60;2.50;;;4.90;99.90;;;;;;4972525;28;20684;-88
2021/12/21 12:27:43;;;;;;;2.07;1.97;;;5.00;99.90;;;;;;4988355;28;20215;-90
2021/12/21 12:30:19;;;;;;;2.30;2.17;;;5.00;99.90;;;;;;4988830;28;20223;-87
2021/12/21 12:33:00;;;;;;;2.00;1.90;;;5.10;99.90;;;;;;5004485;28;20216;-86
2021/12/21 12:35:29;;;;;;;2.13;2.03;;;5.10;99.90;;;;;;4988320;28;20783;-87
2021/12/21 12:38:16;;;;;;;2.40;2.30;;;5.20;99.90;;;;;;5004232;28;20226;-87
2021/12/21 12:40:57;;;;;;;5.00;2.43;;;5.20;99.90;;;;;;5004154;28;20243;-88
2021/12/21 12:43:28;;;;;;;2.27;2.17;;;6.30;99.90;;;;;;4988849;28;20219;-87
2021/12/21 12:46:04;;;;;;;3.27;2.97;;;7.80;99.90;;;;;;4988451;28;20625;-87
2021/12/21 12:48:32;;;;;;;2.03;1.83;;;9.50;99.90;;;;;;5004155;28;20249;-87
2021/12/21 12:51:04;;;;;;;1.70;1.57;;;10.00;99.90;;;;;;5004214;28;20204;-88
2021/12/21 12:53:42;;;;;;;1.77;1.63;;;9.90;99.90;;;;;;5004961;28;20224;-88
2021/12/21 12:56:10;;;;;;;2.30;2.10;;;9.50;99.90;;;;;;5003878;28;20222;-87
2021/12/21 12:58:36;;;;;;;3.50;2.50;;;9.00;99.90;;;;;;4988834;28;20188;-87
2021/12/21 13:01:18;;;;;;;3.67;2.37;;;8.60;99.90;;;;;;4988515;28;20672;-87
2021/12/21 13:03:44;;;;;;;2.63;1.40;;;8.10;99.90;;;;;;4988141;28;20215;-90
2021/12/21 13:06:12;;;;;;;2.43;1.30;;;7.90;99.90;;;;;;4987955;28;20271;-88
2021/12/21 13:08:39;;;;;;;2.33;2.13;;;7.60;99.90;;;;;;4972097;28;20231;-86
2021/12/21 13:11:06;;;;;;;6.80;2.87;;;7.30;99.90;;;;;;4970873;28;20216;-88
2021/12/21 13:13:45;;;;;;;7.90;2.03;;;7.00;99.90;;;;;;4972640;28;20270;-86
2021/12/21 13:16:14;;;;;;;3.57;2.67;;;6.90;99.90;;;;;;4987767;28;20572;-87
2021/12/21 13:18:51;;;;;;;3.00;2.30;;;6.90;99.90;;;;;;5003476;28;20215;-87
2021/12/21 13:21:32;;;;;;;2.90;1.80;;;6.80;99.90;;;;;;4987490;28;20243;-89
2021/12/21 13:24:25;;;;;;;6.83;2.40;;;6.80;99.90;;;;;;4987599;28;20696;-90
2021/12/21 13:26:58;;;;;;;5.57;1.93;;;6.60;99.90;;;;;;5000973;28;20215;-89
2021/12/21 13:29:27;;;;;;;1.03;1.03;;;6.30;99.90;;;;;;4987609;28;20212;-89
2021/12/21 13:31:56;;;;;;;2.73;2.50;;;6.20;99.90;;;;;;4987513;28;20303;-89
2021/12/21 13:34:23;;;;;;;12.20;1.50;;;6.10;99.90;;;;;;4987743;28;20219;-89
2021/12/21 13:36:53;;;;;;;1.77;1.47;;;6.00;99.90;;;;;;4951950;28;20588;-89
2021/12/21 13:39:19;;;;;;;3.27;1.33;;;5.90;99.90;;;;;;4984483;28;20216;-89
2021/12/21 13:42:20;;;;;;;1.17;1.07;;;5.80;99.90;;;;;;4987603;28;20577;-89
2021/12/21 13:44:47;;;;;;;2.10;1.90;;;5.80;99.90;;;;;;4970774;28;20233;-89
2021/12/21 13:47:25;;;;;;;1.33;1.30;;;5.80;99.90;;;;;;5002974;28;20216;-88
2021/12/21 13:49:55;;;;;;;1.80;1.47;;;5.80;99.90;;;;;;5003659;28;20671;-88
2021/12/21 13:52:22;;;;;;;0.70;0.70;;;5.80;99.90;;;;;;4987679;28;20279;-88
2021/12/21 13:54:48;;;;;;;2.47;1.43;;;5.80;99.90;;;;;;4970503;28;20247;-87
2021/12/21 13:57:18;;;;;;;1.60;1.50;;;5.70;99.90;;;;;;4954739;28;20723;-88
2021/12/21 13:59:48;;;;;;;2.00;1.80;;;5.70;99.90;;;;;;4986502;28;20216;-89
2021/12/21 14:02:33;;;;;;;2.43;1.30;;;5.60;99.90;;;;;;4985371;28;20304;-88
2021/12/21 14:05:01;;;;;;;2.70;1.50;;;5.60;99.90;;;;;;4993079;28;20270;-88
2021/12/21 14:07:30;;;;;;;3.20;1.67;;;5.50;99.90;;;;;;4953533;28;20603;-90
2021/12/21 14:10:18;;;;;;;1.53;1.43;;;5.50;99.90;;;;;;4961797;28;20207;-90
2021/12/21 14:13:01;;;;;;;1.80;1.70;;;5.40;99.90;;;;;;4977051;28;20220;-90
2021/12/21 14:15:47;;;;;;;1.77;1.67;;;5.40;99.90;;;;;;4977621;28;20946;-90